createdAt,value
2018-08-18T00:00:17.068Z,99343.56
2018-08-18T00:02:46.145Z,99344.12
2018-08-18T00:05:15.802Z,99351.30
2018-08-18T00:07:44.922Z,99348.37
2018-08-18T00:10:16.645Z,99346.01
2018-08-18T00:12:45.716Z,99350.69
2018-08-18T00:15:15.341Z,99349.34
2018-08-18T00:17:44.407Z,99353.84
2018-08-18T00:20:15.491Z,99351.70
2018-08-18T00:22:44.766Z,99352.03
2018-08-18T00:25:14.016Z,99355.41
2018-08-18T00:27:43.094Z,99354.93
2018-08-18T00:30:17.482Z,99358.88
2018-08-18T00:32:46.542Z,99329.70
2018-08-18T00:35:16.348Z,99358.52
2018-08-18T00:37:45.507Z,99361.71
2018-08-18T00:40:14.710Z,99362.03
2018-08-18T00:42:43.800Z,99357.50
2018-08-18T00:45:13.677Z,99354.06
2018-08-18T00:47:42.769Z,99355.41
2018-08-18T00:50:15.996Z,99353.98
2018-08-18T00:52:45.823Z,99355.00
2018-08-18T00:55:14.943Z,99346.08
2018-08-18T00:57:43.993Z,99351.80
2018-08-18T01:00:13.167Z,99350.53
2018-08-18T01:02:42.294Z,99350.86
2018-08-18T01:05:11.679Z,99345.90
2018-08-18T01:07:40.843Z,99344.88
2018-08-18T01:10:09.950Z,99343.43
2018-08-18T01:12:39.032Z,99351.02
2018-08-18T01:15:08.630Z,99353.80
2018-08-18T01:17:37.775Z,99350.00
2018-08-18T01:20:07.175Z,99347.86
2018-08-18T01:22:36.203Z,99342.67
2018-08-18T01:25:06.277Z,99349.38
2018-08-18T01:27:46.615Z,99347.82
2018-08-18T01:30:16.657Z,99349.95
2018-08-18T01:32:45.728Z,99353.55
2018-08-18T01:35:14.818Z,99353.69
2018-08-18T01:37:43.874Z,99360.64
2018-08-18T01:40:12.925Z,99362.88
2018-08-18T01:42:41.966Z,99360.37
2018-08-18T01:45:11.045Z,99365.08
2018-08-18T01:47:40.141Z,99367.03
2018-08-18T01:50:25.677Z,99373.52
2018-08-18T01:52:54.756Z,99375.06
2018-08-18T01:55:23.900Z,99371.27
2018-08-18T01:57:52.978Z,99369.27
2018-08-18T02:00:24.817Z,99364.38
2018-08-18T02:02:53.930Z,99364.36
2018-08-18T02:05:23.649Z,99368.80
2018-08-18T02:07:52.718Z,99361.50
2018-08-18T02:10:21.796Z,99361.58
2018-08-18T02:13:02.828Z,99361.42
2018-08-18T02:15:32.201Z,99359.47
2018-08-18T02:18:01.307Z,99366.50
2018-08-18T02:20:30.369Z,99363.86
2018-08-18T02:22:59.430Z,99370.41
2018-08-18T02:25:28.582Z,99374.52
2018-08-18T02:27:57.672Z,99378.22
2018-08-18T02:30:26.750Z,99370.97
2018-08-18T02:32:55.852Z,99374.52
2018-08-18T02:35:24.928Z,99381.45
2018-08-18T02:37:54.030Z,99372.34
2018-08-18T02:40:23.107Z,99377.70
2018-08-18T02:42:52.191Z,99376.66
2018-08-18T02:45:21.289Z,99376.53
2018-08-18T02:48:04.722Z,99375.63
2018-08-18T02:50:33.812Z,99378.35
2018-08-18T02:53:11.801Z,99373.41
2018-08-18T02:55:40.900Z,99379.88
2018-08-18T02:58:09.926Z,99281.30
2018-08-18T03:00:38.990Z,99379.62
2018-08-18T03:03:08.190Z,99380.64
2018-08-18T03:05:37.307Z,99388.63
2018-08-18T03:08:06.393Z,99385.77
2018-08-18T03:10:35.535Z,99361.40
2018-08-18T03:13:04.598Z,99394.33
2018-08-18T03:16:06.458Z,99396.75
2018-08-18T03:18:43.200Z,99397.06
2018-08-18T03:21:12.320Z,99398.09
2018-08-18T03:23:52.660Z,99399.05
2018-08-18T03:26:26.540Z,99401.14
2018-08-18T03:28:55.632Z,99401.31
2018-08-18T03:31:24.696Z,99404.42
2018-08-18T03:33:53.775Z,99403.33
2018-08-18T03:36:28.589Z,99403.62
2018-08-18T03:38:58.038Z,99403.50
2018-08-18T03:41:27.843Z,99407.41
2018-08-18T03:43:57.373Z,99405.64
2018-08-18T03:46:26.449Z,99409.98
2018-08-18T03:48:55.588Z,99415.81
2018-08-18T03:51:30.226Z,99412.02
2018-08-18T03:53:59.761Z,99410.62
2018-08-18T03:56:28.790Z,99415.07
2018-08-18T03:58:58.669Z,99413.07
2018-08-18T04:01:40.607Z,99414.29
2018-08-18T04:04:10.897Z,99416.72
2018-08-18T04:06:41.121Z,99417.94
2018-08-18T04:09:13.528Z,99415.30
2018-08-18T04:11:42.575Z,99419.30
2018-08-18T04:14:11.689Z,99427.19
2018-08-18T04:16:50.956Z,99429.69
2018-08-18T04:19:21.024Z,99433.57
2018-08-18T04:21:52.054Z,99434.38
2018-08-18T04:24:21.178Z,99436.98
2018-08-18T04:26:51.277Z,99435.81
2018-08-18T04:29:22.038Z,99434.20
2018-08-18T04:31:51.135Z,99437.13
2018-08-18T04:34:20.257Z,99437.77
2018-08-18T04:36:49.387Z,99446.57
2018-08-18T04:39:18.438Z,99451.84
2018-08-18T04:41:47.528Z,99452.95
2018-08-18T04:44:16.669Z,99448.00
2018-08-18T04:46:45.725Z,99448.64
2018-08-18T04:49:15.485Z,99452.42
2018-08-18T04:51:44.687Z,99452.06
2018-08-18T04:54:13.856Z,99451.97
2018-08-18T04:56:42.987Z,99456.75
2018-08-18T04:59:12.031Z,99451.66
2018-08-18T05:01:41.613Z,99457.36
2018-08-18T05:04:12.739Z,99456.61
2018-08-18T05:06:43.196Z,99455.67
2018-08-18T05:09:13.766Z,99458.13
2018-08-18T05:11:42.890Z,99463.12
2018-08-18T05:14:11.966Z,99459.33
2018-08-18T05:16:41.061Z,99465.25
2018-08-18T05:19:10.174Z,99464.16
2018-08-18T05:21:39.201Z,99463.44
2018-08-18T05:24:21.162Z,99460.52
2018-08-18T05:26:50.658Z,99468.50
2018-08-18T05:29:19.754Z,99469.34
2018-08-18T05:31:48.881Z,99461.92
2018-08-18T05:34:17.952Z,99463.69
2018-08-18T05:36:47.077Z,99463.88
2018-08-18T05:39:16.200Z,99463.66
2018-08-18T05:41:45.289Z,99470.20
2018-08-18T05:44:14.341Z,99465.72
2018-08-18T05:46:43.743Z,99472.11
2018-08-18T05:49:15.880Z,99472.84
2018-08-18T05:51:47.687Z,99479.41
2018-08-18T05:54:22.300Z,99481.56
2018-08-18T05:56:51.416Z,99479.31
2018-08-18T05:59:20.518Z,99474.55
2018-08-18T06:01:49.606Z,99477.78
2018-08-18T06:04:20.281Z,99484.02
2018-08-18T06:06:49.930Z,99486.22
2018-08-18T06:09:20.212Z,99484.17
2018-08-18T06:11:49.578Z,99483.11
2018-08-18T06:14:19.152Z,99484.30
2018-08-18T06:16:48.366Z,99486.40
2018-08-18T06:19:17.515Z,99492.02
2018-08-18T06:21:46.645Z,99492.25
2018-08-18T06:24:15.825Z,99494.83
2018-08-18T06:26:44.939Z,99497.42
2018-08-18T06:29:14.034Z,99493.34
2018-08-18T06:31:57.231Z,99492.62
2018-08-18T06:34:27.389Z,99500.04
2018-08-18T06:36:56.744Z,99497.78
2018-08-18T06:39:25.948Z,99498.41
2018-08-18T06:41:55.144Z,99495.85
2018-08-18T06:44:27.085Z,99503.90
2018-08-18T06:46:56.204Z,99503.05
2018-08-18T06:49:25.355Z,99507.03
2018-08-18T06:51:54.538Z,99510.61
2018-08-18T06:54:23.950Z,99512.77
2018-08-18T06:56:52.980Z,99513.03
2018-08-18T06:59:22.124Z,99516.13
2018-08-18T07:01:51.344Z,99511.94
2018-08-18T07:04:24.801Z,99520.84
2018-08-18T07:06:53.858Z,99511.95
2018-08-18T07:09:23.022Z,99514.62
2018-08-18T07:11:52.144Z,99522.20
2018-08-18T07:14:21.310Z,99517.80
2018-08-18T07:16:50.424Z,99525.55
2018-08-18T07:19:19.558Z,99526.84
2018-08-18T07:21:48.730Z,99523.95
2018-08-18T07:24:17.930Z,99521.08
2018-08-18T07:26:47.024Z,99530.48
2018-08-18T07:29:16.286Z,99526.44
2018-08-18T07:31:45.490Z,99532.75
2018-08-18T07:34:14.575Z,99531.03
2018-08-18T07:36:43.889Z,99532.41
2018-08-18T07:39:12.992Z,99539.46
2018-08-18T07:41:42.170Z,99541.28
2018-08-18T07:44:11.314Z,99547.73
2018-08-18T07:46:40.436Z,99547.42
2018-08-18T07:49:09.650Z,99553.76
2018-08-18T07:51:39.719Z,99547.17
2018-08-18T07:54:08.890Z,99550.53
2018-08-18T07:56:38.062Z,99554.98
2018-08-18T07:59:07.157Z,99524.12
2018-08-18T08:01:36.359Z,99553.92
2018-08-18T08:04:05.793Z,99553.11
2018-08-18T08:06:34.911Z,99548.11
2018-08-18T08:09:04.811Z,99557.19
2018-08-18T08:11:34.008Z,99564.13
2018-08-18T08:14:03.124Z,99562.13
2018-08-18T08:16:32.200Z,99559.08
2018-08-18T08:19:01.601Z,99555.35
2018-08-18T08:21:31.679Z,99553.33
2018-08-18T08:24:01.122Z,99554.67
2018-08-18T08:26:30.256Z,99555.88
2018-08-18T08:28:59.678Z,99556.12
2018-08-18T08:31:29.070Z,99494.44
2018-08-18T08:33:58.177Z,99560.19
2018-08-18T08:36:27.209Z,99558.53
2018-08-18T08:38:59.038Z,99557.09
2018-08-18T08:41:30.120Z,99555.47
2018-08-18T08:43:59.287Z,99551.80
2018-08-18T08:46:28.311Z,99549.77
2018-08-18T08:48:59.264Z,99555.83
2018-08-18T08:51:28.386Z,99549.56
2018-08-18T08:53:58.765Z,99551.70
2018-08-18T08:56:45.164Z,99549.22
2018-08-18T08:59:14.262Z,99549.10
2018-08-18T09:01:43.306Z,99547.20
2018-08-18T09:04:12.529Z,99540.02
2018-08-18T09:06:45.863Z,99537.31
2018-08-18T09:09:15.046Z,99546.74
2018-08-18T09:11:44.130Z,99539.92
2018-08-18T09:14:13.258Z,99544.47
2018-08-18T09:16:42.429Z,99543.52
2018-08-18T09:19:11.636Z,99548.53
2018-08-18T09:21:49.824Z,99544.52
2018-08-18T09:24:22.921Z,99544.95
2018-08-18T09:26:52.130Z,99537.80
2018-08-18T09:29:21.847Z,99538.98
2018-08-18T09:31:50.898Z,99537.05
2018-08-18T09:34:19.988Z,99531.73
2018-08-18T09:36:49.618Z,99533.12
2018-08-18T09:39:24.943Z,99527.72
2018-08-18T09:41:54.088Z,99525.21
2018-08-18T09:44:32.090Z,99528.58
2018-08-18T09:47:01.178Z,99520.36
2018-08-18T09:49:31.449Z,99519.45
2018-08-18T09:52:01.402Z,99518.59
2018-08-18T09:54:30.665Z,99523.70
2018-08-18T09:56:59.883Z,99517.98
2018-08-18T09:59:29.440Z,99516.45
2018-08-18T10:01:58.596Z,99519.61
2018-08-18T10:04:28.486Z,99519.29
2018-08-18T10:06:57.596Z,99521.06
2018-08-18T10:09:26.836Z,99513.52
2018-08-18T10:11:56.061Z,99516.57
2018-08-18T10:14:25.287Z,99516.45
2018-08-18T10:16:54.347Z,99520.95
2018-08-18T10:19:23.474Z,99518.70
2018-08-18T10:21:52.915Z,99516.67
2018-08-18T10:24:22.307Z,99516.58
2018-08-18T10:26:56.889Z,99507.89
2018-08-18T10:29:26.647Z,99514.75
2018-08-18T10:31:56.970Z,99508.66
2018-08-18T10:34:27.331Z,99509.45
2018-08-18T10:37:00.959Z,99509.58
2018-08-18T10:39:30.851Z,99503.04
2018-08-18T10:42:16.834Z,99510.37
2018-08-18T10:44:51.692Z,99501.56
2018-08-18T10:47:22.211Z,99497.80
2018-08-18T10:50:02.902Z,99497.22
2018-08-18T10:52:43.702Z,99515.19
2018-08-18T10:55:13.985Z,99502.08
2018-08-18T10:57:54.984Z,99497.10
2018-08-18T11:00:25.068Z,99500.90
2018-08-18T11:02:55.430Z,99493.23
2018-08-18T11:05:25.431Z,99492.72
2018-08-18T11:08:04.365Z,99467.72
2018-08-18T11:10:35.079Z,99492.75
2018-08-18T11:13:04.361Z,99493.08
2018-08-18T11:15:33.564Z,99486.40
2018-08-18T11:18:02.958Z,99495.21
2018-08-18T11:20:33.902Z,99496.66
2018-08-18T11:23:05.074Z,99498.69
2018-08-18T11:25:39.116Z,99498.65
2018-08-18T11:28:09.212Z,99495.96
2018-08-18T11:30:38.306Z,99492.76
2018-08-18T11:33:07.711Z,99491.27
2018-08-18T11:35:37.372Z,99494.89
2018-08-18T11:38:09.292Z,99493.73
2018-08-18T11:40:38.353Z,99493.34
2018-08-18T11:43:11.479Z,99495.75
2018-08-18T11:45:41.306Z,99496.31
2018-08-18T11:48:17.403Z,99492.80
2018-08-18T11:50:46.966Z,99495.05
2018-08-18T11:53:16.206Z,99486.12
2018-08-18T11:55:45.382Z,99484.88
2018-08-18T11:58:16.854Z,99478.93
2018-08-18T12:00:50.296Z,99487.56
2018-08-18T12:03:23.267Z,99477.33
2018-08-18T12:05:55.422Z,99477.38
2018-08-18T12:08:27.027Z,99476.51
2018-08-18T12:10:58.289Z,99468.81
2018-08-18T12:13:32.421Z,99468.82
2018-08-18T12:16:08.110Z,99462.38
2018-08-18T12:18:38.507Z,99441.73
2018-08-18T12:21:08.087Z,99455.20
2018-08-18T12:23:38.677Z,99452.78
2018-08-18T12:26:12.446Z,99450.11
2018-08-18T12:28:47.690Z,99450.83
2018-08-18T12:31:18.237Z,99440.20
2018-08-18T12:33:47.342Z,99443.22
2018-08-18T12:36:16.586Z,99451.10
2018-08-18T12:38:48.592Z,99449.33
2018-08-18T12:41:17.730Z,99447.98
2018-08-18T12:43:48.492Z,99443.22
2018-08-18T12:46:18.785Z,99439.27
2018-08-18T12:48:49.821Z,99440.67
2018-08-18T12:51:19.807Z,99432.28
2018-08-18T12:53:51.360Z,99427.84
2018-08-18T12:56:23.524Z,99425.76
2018-08-18T12:58:52.647Z,99421.73
2018-08-18T13:01:36.768Z,99429.68
2018-08-18T13:04:08.029Z,99421.84
2018-08-18T13:06:45.147Z,99416.45
2018-08-18T13:09:15.506Z,99417.55
2018-08-18T13:11:46.089Z,99419.33
2018-08-18T13:14:17.395Z,99416.50
2018-08-18T13:16:47.110Z,99409.69
2018-08-18T13:19:18.126Z,99409.28
2018-08-18T13:21:47.256Z,99408.59
2018-08-18T13:24:16.593Z,99397.91
2018-08-18T13:26:45.622Z,99400.21
2018-08-18T13:29:14.702Z,99397.17
2018-08-18T13:31:44.580Z,99401.09
2018-08-18T13:34:15.787Z,99398.36
2018-08-18T13:36:45.934Z,99392.86
2018-08-18T13:39:17.321Z,99389.09
2018-08-18T13:41:47.356Z,99385.91
2018-08-18T13:44:23.154Z,99385.80
2018-08-18T13:46:52.342Z,99391.08
2018-08-18T13:49:23.722Z,99384.69
2018-08-18T13:51:52.931Z,99386.23
2018-08-18T13:54:22.115Z,99383.92
2018-08-18T13:56:51.083Z,99378.84
2018-08-18T13:59:52.202Z,99383.33
2018-08-18T14:02:21.412Z,99377.07
2018-08-18T14:04:50.505Z,99373.16
2018-08-18T14:07:19.602Z,99372.98
2018-08-18T14:09:52.514Z,99364.40
2018-08-18T14:12:21.570Z,99363.22
2018-08-18T14:14:50.677Z,99357.75
2018-08-18T14:17:21.764Z,99363.79
2018-08-18T14:19:51.611Z,99362.05
2018-08-18T14:22:21.908Z,99355.03
2018-08-18T14:24:51.052Z,99349.53
2018-08-18T14:27:21.879Z,99359.91
2018-08-18T14:29:51.004Z,99355.42
2018-08-18T14:32:25.138Z,99353.45
2018-08-18T14:34:59.446Z,99352.86
2018-08-18T14:37:28.471Z,99346.58
2018-08-18T14:39:57.594Z,99351.08
2018-08-18T14:42:26.606Z,99351.08
2018-08-18T14:44:57.546Z,99341.16
2018-08-18T14:47:26.606Z,99341.16
2018-08-18T14:50:12.400Z,99341.29
2018-08-18T14:52:42.336Z,99338.63
2018-08-18T14:55:11.436Z,99340.97
2018-08-18T14:57:47.237Z,99339.53
2018-08-18T15:00:16.319Z,99339.07
2018-08-18T15:02:45.392Z,99341.28
2018-08-18T15:05:14.499Z,99333.13
2018-08-18T15:07:49.210Z,99337.56
2018-08-18T15:10:32.547Z,99331.23
2018-08-18T15:13:02.291Z,99341.50
2018-08-18T15:15:32.354Z,99335.33
2018-08-18T15:18:05.634Z,99329.80
2018-08-18T15:20:35.954Z,99332.81
2018-08-18T15:23:06.708Z,99331.66
2018-08-18T15:25:36.592Z,99329.30
2018-08-18T15:28:07.133Z,99326.55
2018-08-18T15:30:37.136Z,99325.14
2018-08-18T15:33:07.328Z,99329.50
2018-08-18T15:35:37.810Z,99329.33
2018-08-18T15:38:07.796Z,99322.21
2018-08-18T15:40:36.865Z,99324.91
2018-08-18T15:43:05.955Z,99332.84
2018-08-18T15:46:09.922Z,99328.51
2018-08-18T15:48:40.533Z,99325.81
2018-08-18T15:51:09.720Z,99324.52
2018-08-18T15:54:02.921Z,99326.41
2018-08-18T15:56:34.354Z,99323.01
2018-08-18T15:59:03.923Z,99324.70
2018-08-18T16:01:34.282Z,99316.98
2018-08-18T16:04:04.163Z,99319.45
2018-08-18T16:06:33.425Z,99314.91
2018-08-18T16:09:02.629Z,99311.36
2018-08-18T16:11:31.807Z,99319.66
2018-08-18T16:14:01.037Z,99312.76
2018-08-18T16:16:30.185Z,99312.16
2018-08-18T16:19:08.245Z,99316.14
2018-08-18T16:21:37.400Z,99316.80
2018-08-18T16:24:06.593Z,99308.33
2018-08-18T16:26:36.072Z,99307.11
2018-08-18T16:29:05.723Z,99308.21
2018-08-18T16:31:34.817Z,99312.11
2018-08-18T16:34:05.350Z,99301.25
2018-08-18T16:36:39.648Z,99301.73
2018-08-18T16:39:08.769Z,99306.84
2018-08-18T16:41:37.864Z,99306.16
2018-08-18T16:44:07.243Z,99308.73
2018-08-18T16:46:36.357Z,99305.91
2018-08-18T16:49:06.439Z,99303.70
2018-08-18T16:51:35.619Z,99302.02
2018-08-18T16:54:19.110Z,99300.75
2018-08-18T16:56:48.233Z,99301.16
2018-08-18T16:59:17.339Z,99300.20
2018-08-18T17:01:46.453Z,99314.06
2018-08-18T17:04:22.807Z,99311.10
2018-08-18T17:06:51.923Z,99313.26
2018-08-18T17:09:32.848Z,99307.93
2018-08-18T17:12:20.925Z,99312.40
2018-08-18T17:14:49.998Z,99313.84
2018-08-18T17:17:19.164Z,99311.72
2018-08-18T17:19:48.195Z,99312.19
2018-08-18T17:22:17.286Z,99305.72
2018-08-18T17:24:46.368Z,99307.27
2018-08-18T17:27:15.515Z,99307.53
2018-08-18T17:29:49.304Z,99304.59
2018-08-18T17:32:18.412Z,99307.98
2018-08-18T17:34:47.512Z,99311.39
2018-08-18T17:37:16.612Z,99308.61
2018-08-18T17:39:45.804Z,99308.55
2018-08-18T17:43:02.869Z,99310.16
2018-08-18T17:45:39.154Z,99319.51
2018-08-18T17:48:08.420Z,99322.09
2018-08-18T17:50:40.185Z,99317.76
2018-08-18T17:53:09.812Z,99319.30
2018-08-18T17:55:38.873Z,99319.23
2018-08-18T17:58:07.992Z,99327.78
2018-08-18T18:00:37.082Z,99320.25
2018-08-18T18:03:08.154Z,99330.59
2018-08-18T18:05:37.357Z,99331.05
2018-08-18T18:08:07.487Z,99331.94
2018-08-18T18:10:37.862Z,99336.71
2018-08-18T18:13:16.472Z,99340.25
2018-08-18T18:15:47.179Z,99342.97
2018-08-18T18:18:18.332Z,99346.28
2018-08-18T18:20:48.934Z,99347.28
2018-08-18T18:23:18.734Z,99350.48
2018-08-18T18:25:47.881Z,99353.84
2018-08-18T18:28:16.998Z,99353.91
2018-08-18T18:30:46.094Z,99366.55
2018-08-18T18:33:15.189Z,99370.16
2018-08-18T18:35:44.362Z,99373.45
2018-08-18T18:38:13.831Z,99371.55
2018-08-18T18:40:44.720Z,99376.30
2018-08-18T18:43:13.780Z,99380.66
2018-08-18T18:45:42.963Z,99374.08
2018-08-18T18:48:13.514Z,99377.92
2018-08-18T18:50:48.227Z,99379.39
2018-08-18T18:53:17.508Z,99379.29
2018-08-18T18:55:51.701Z,99380.27
2018-08-18T18:58:20.960Z,99387.97
2018-08-18T19:01:11.080Z,99390.73
2018-08-18T19:03:40.176Z,99392.16
2018-08-18T19:06:09.333Z,99397.95
2018-08-18T19:08:53.760Z,99403.00
2018-08-18T19:11:23.474Z,99408.89
2018-08-18T19:13:52.655Z,99410.02
2018-08-18T19:16:21.810Z,99415.78
2018-08-18T19:18:50.906Z,99420.50
2018-08-18T19:21:20.063Z,99416.45
2018-08-18T19:23:49.226Z,99417.67
2018-08-18T19:26:19.216Z,99420.81
2018-08-18T19:28:48.412Z,99423.30
2018-08-18T19:31:20.807Z,99428.02
2018-08-18T19:33:50.626Z,99433.03
2018-08-18T19:36:19.703Z,99433.93
2018-08-18T19:38:49.423Z,99434.89
2018-08-18T19:41:18.610Z,99441.11
2018-08-18T19:43:47.766Z,99444.45
2018-08-18T19:46:16.925Z,99449.56
2018-08-18T19:48:46.263Z,99459.91
2018-08-18T19:51:16.209Z,99449.73
2018-08-18T19:53:45.335Z,99450.46
2018-08-18T19:56:14.421Z,99457.30
2018-08-18T19:58:43.977Z,99457.34
2018-08-18T20:01:13.086Z,99456.41
2018-08-18T20:03:42.282Z,99455.12
2018-08-18T20:06:17.185Z,99459.48
2018-08-18T20:08:46.341Z,99458.19
2018-08-18T20:11:15.891Z,99459.55
2018-08-18T20:13:45.014Z,99460.84
2018-08-18T20:16:14.213Z,99461.48
2018-08-18T20:18:43.710Z,99463.47
2018-08-18T20:21:12.855Z,99467.14
2018-08-18T20:23:42.010Z,99465.70
2018-08-18T20:26:11.153Z,99470.03
2018-08-18T20:28:40.299Z,99473.36
2018-08-18T20:31:09.696Z,99466.73
2018-08-18T20:33:38.823Z,99469.18
2018-08-18T20:36:08.053Z,99468.80
2018-08-18T20:38:42.306Z,99470.79
2018-08-18T20:41:11.777Z,99472.52
2018-08-18T20:43:42.055Z,99476.20
2018-08-18T20:46:11.295Z,99471.27
2018-08-18T20:48:40.210Z,99477.87
2018-08-18T20:51:09.487Z,99482.25
2018-08-18T20:53:38.632Z,99481.80
2018-08-18T20:56:07.739Z,99486.03
2018-08-18T20:58:36.855Z,99490.02
2018-08-18T21:01:06.704Z,99491.64
2018-08-18T21:03:46.754Z,99494.28
2018-08-18T21:06:16.757Z,99499.92
2018-08-18T21:08:45.946Z,99496.78
2018-08-18T21:11:15.326Z,99501.66
2018-08-18T21:13:47.044Z,99503.27
2018-08-18T21:16:16.782Z,99507.57
2018-08-18T21:18:45.898Z,99504.85
2018-08-18T21:21:33.786Z,99503.03
2018-08-18T21:24:02.877Z,99504.28
2018-08-18T21:26:31.985Z,99502.46
2018-08-18T21:29:01.081Z,99503.56
2018-08-18T21:31:33.091Z,99502.09
2018-08-18T21:34:03.222Z,99510.92
2018-08-18T21:36:32.848Z,99505.42
2018-08-18T21:39:05.007Z,99513.73
2018-08-18T21:41:36.584Z,99519.70
2018-08-18T21:44:06.533Z,99516.22
2018-08-18T21:46:35.650Z,99514.65
2018-08-18T21:49:04.746Z,99507.66
2018-08-18T21:51:33.890Z,99508.47
2018-08-18T21:54:03.202Z,99340.71
2018-08-18T21:56:36.654Z,99510.70
2018-08-18T21:59:08.309Z,99514.86
2018-08-18T22:01:37.457Z,99514.66
2018-08-18T22:04:06.923Z,99518.48
2018-08-18T22:06:36.074Z,99514.65
2018-08-18T22:09:19.713Z,99514.89
2018-08-18T22:11:48.844Z,99514.22
2018-08-18T22:14:18.416Z,99518.72
2018-08-18T22:16:52.887Z,99513.75
2018-08-18T22:19:22.290Z,99513.64
2018-08-18T22:21:51.402Z,99521.09
2018-08-18T22:24:20.617Z,99514.88
2018-08-18T22:26:49.715Z,99521.09
2018-08-18T22:29:22.445Z,99517.30
2018-08-18T22:31:52.083Z,99520.83
2018-08-18T22:34:21.144Z,99514.94
2018-08-18T22:36:50.253Z,99519.83
2018-08-18T22:39:19.293Z,99516.05
2018-08-18T22:41:48.426Z,99522.88
2018-08-18T22:44:17.566Z,99524.70
2018-08-18T22:46:46.717Z,99516.40
2018-08-18T22:49:15.750Z,99511.20
2018-08-18T22:51:44.870Z,99504.25
2018-08-18T22:54:13.983Z,99507.73
2018-08-18T22:56:47.246Z,99504.44
2018-08-18T22:59:16.405Z,99502.58
2018-08-18T23:01:45.530Z,99504.98
2018-08-18T23:04:28.341Z,99504.70
2018-08-18T23:06:58.204Z,99509.89
2018-08-18T23:09:28.198Z,99510.66
2018-08-18T23:12:00.349Z,99504.94
2018-08-18T23:14:33.986Z,99509.99
2018-08-18T23:17:06.973Z,99509.30
2018-08-18T23:19:36.089Z,99504.34
2018-08-18T23:22:05.767Z,99502.18
2018-08-18T23:24:38.124Z,99504.70
2018-08-18T23:27:07.166Z,99498.95
2018-08-18T23:29:36.676Z,99501.94
2018-08-18T23:32:16.098Z,99500.24
2018-08-18T23:34:45.217Z,99503.79
2018-08-18T23:37:19.498Z,99497.17
2018-08-18T23:39:52.494Z,99502.27
2018-08-18T23:42:23.387Z,99498.39
2018-08-18T23:44:52.629Z,99505.80
2018-08-18T23:47:21.676Z,99502.33
2018-08-18T23:49:50.906Z,99508.70
2018-08-18T23:52:20.007Z,99501.53
2018-08-18T23:54:49.144Z,99498.30
2018-08-18T23:57:18.714Z,99496.95
2018-08-18T23:59:48.336Z,99500.06
